NSZ2WK ESSA-LPPT
Flight info
| Callsign | NSZ2WK |
|---|---|
| Flight time | 4h 6m |
| Altitude | 34000 |
| Route | ARS N623 BEDLA N866 LAPSI DCT INVOL N866 DETNA DCT UPGAS DCT TIPAN N866 DIGSU DCT IBNID/N0441F350 M195 LORKU DCT EBOMO DCT BALDA DCT ABUPI DCT XAMAX |
| Aircraft | B738/M-SDE2E3GHIJ1LRWXY/LB1 |
Departure
| Time | 2026-05-07 14:27 |
|---|---|
| Airport | Stockholm-Arlanda Airport (ESSA) |
Arrival
| Time | 2026-05-07 18:33 |
|---|---|
| Airport | Lisbon Humberto Delgado Airport (LPPT) |
| Time | Latitude | Longitude | Altitude | Speed | Heading |
|---|---|---|---|---|---|
| 2026-05-07 14:02 | 59.64755 | 17.92452 | 111 ft | 0 kts | 43° |
| 2026-05-07 14:16 | 59.64738 | 17.92422 | 109 ft | 4 kts | 32° |
| 2026-05-07 14:17 | 59.64715 | 17.92405 | 108 ft | 4 kts | 349° |
| 2026-05-07 14:17 | 59.64704 | 17.92418 | 109 ft | 0 kts | 286° |
| 2026-05-07 14:21 | 59.64706 | 17.92408 | 110 ft | 3 kts | 286° |
| 2026-05-07 14:22 | 59.64717 | 17.92331 | 111 ft | 8 kts | 286° |
| 2026-05-07 14:22 | 59.64733 | 17.92218 | 111 ft | 9 kts | 287° |
| 2026-05-07 14:22 | 59.64757 | 17.92094 | 106 ft | 11 kts | 310° |
| 2026-05-07 14:22 | 59.64839 | 17.92087 | 106 ft | 13 kts | 11° |
| 2026-05-07 14:23 | 59.64924 | 17.92119 | 106 ft | 12 kts | 11° |
| 2026-05-07 14:23 | 59.65009 | 17.92148 | 106 ft | 12 kts | 11° |
| 2026-05-07 14:23 | 59.65091 | 17.92178 | 106 ft | 12 kts | 10° |
| 2026-05-07 14:23 | 59.65172 | 17.92207 | 106 ft | 12 kts | 9° |
| 2026-05-07 14:24 | 59.65259 | 17.92239 | 106 ft | 14 kts | 11° |
| 2026-05-07 14:24 | 59.65333 | 17.92265 | 104 ft | 18 kts | 9° |
| 2026-05-07 14:24 | 59.65472 | 17.92315 | 103 ft | 22 kts | 11° |
| 2026-05-07 14:24 | 59.65694 | 17.92396 | 104 ft | 26 kts | 10° |
| 2026-05-07 14:25 | 59.65881 | 17.92464 | 106 ft | 28 kts | 10° |
| 2026-05-07 14:25 | 59.66003 | 17.92508 | 108 ft | 27 kts | 10° |
| 2026-05-07 14:25 | 59.66183 | 17.92573 | 112 ft | 25 kts | 10° |
| 2026-05-07 14:25 | 59.66352 | 17.92634 | 118 ft | 24 kts | 10° |
| 2026-05-07 14:26 | 59.66492 | 17.92634 | 120 ft | 18 kts | 340° |
| 2026-05-07 14:26 | 59.66601 | 17.92552 | 121 ft | 12 kts | 322° |
| 2026-05-07 14:26 | 59.66620 | 17.92406 | 123 ft | 8 kts | 266° |
| 2026-05-07 14:26 | 59.66553 | 17.92345 | 122 ft | 26 kts | 190° |
| 2026-05-07 14:27 | 59.66135 | 17.92193 | 116 ft | 95 kts | 190° |
| 2026-05-07 14:27 | 59.65281 | 17.91887 | 107 ft | 152 kts | 190° |
| 2026-05-07 14:27 | 59.64125 | 17.91463 | 443 ft | 175 kts | 191° |
| 2026-05-07 14:27 | 59.62897 | 17.91039 | 1248 ft | 175 kts | 190° |
| 2026-05-07 14:28 | 59.61758 | 17.90401 | 2135 ft | 174 kts | 217° |
| 2026-05-07 14:28 | 59.60956 | 17.88421 | 2504 ft | 199 kts | 238° |
| 2026-05-07 14:28 | 59.60162 | 17.86006 | 2838 ft | 217 kts | 237° |
| 2026-05-07 14:28 | 59.59319 | 17.83490 | 3351 ft | 224 kts | 237° |
| 2026-05-07 14:29 | 59.58487 | 17.80919 | 3999 ft | 226 kts | 241° |
| 2026-05-07 14:29 | 59.57733 | 17.78098 | 4312 ft | 248 kts | 244° |
| 2026-05-07 14:29 | 59.56962 | 17.74960 | 4876 ft | 255 kts | 251° |
| 2026-05-07 14:29 | 59.56721 | 17.71492 | 4985 ft | 257 kts | 272° |
| 2026-05-07 14:30 | 59.56793 | 17.67951 | 5007 ft | 259 kts | 272° |
| 2026-05-07 14:30 | 59.56871 | 17.64384 | 5005 ft | 260 kts | 272° |
| 2026-05-07 14:30 | 59.56955 | 17.60823 | 4990 ft | 259 kts | 273° |
| 2026-05-07 14:30 | 59.57037 | 17.57287 | 4996 ft | 256 kts | 272° |
| 2026-05-07 14:31 | 59.57113 | 17.53822 | 5006 ft | 256 kts | 272° |
| 2026-05-07 14:31 | 59.57185 | 17.50318 | 5001 ft | 256 kts | 272° |
| 2026-05-07 14:31 | 59.57257 | 17.46791 | 5010 ft | 257 kts | 272° |
| 2026-05-07 14:31 | 59.57326 | 17.43239 | 5064 ft | 262 kts | 272° |
| 2026-05-07 14:32 | 59.57399 | 17.39630 | 5770 ft | 264 kts | 272° |
| 2026-05-07 14:32 | 59.57468 | 17.36026 | 6756 ft | 260 kts | 272° |
| 2026-05-07 14:32 | 59.57533 | 17.32457 | 7605 ft | 261 kts | 272° |
| 2026-05-07 14:32 | 59.57598 | 17.28906 | 8363 ft | 264 kts | 272° |
| 2026-05-07 14:33 | 59.57663 | 17.25269 | 9170 ft | 266 kts | 272° |
| 2026-05-07 14:33 | 59.57728 | 17.21598 | 9977 ft | 268 kts | 272° |
| 2026-05-07 14:33 | 59.57710 | 17.17889 | 10540 ft | 278 kts | 267° |
| 2026-05-07 14:33 | 59.57558 | 17.13915 | 10698 ft | 301 kts | 265° |
| 2026-05-07 14:34 | 59.57359 | 17.09688 | 10897 ft | 322 kts | 265° |
| 2026-05-07 14:34 | 59.57147 | 17.05216 | 11360 ft | 332 kts | 265° |
| 2026-05-07 14:34 | 59.56935 | 17.00654 | 12073 ft | 335 kts | 265° |
| 2026-05-07 14:34 | 59.56728 | 16.96070 | 12860 ft | 336 kts | 266° |
| 2026-05-07 14:35 | 59.56525 | 16.91478 | 13617 ft | 338 kts | 266° |
| 2026-05-07 14:35 | 59.56322 | 16.86841 | 14281 ft | 340 kts | 266° |
| 2026-05-07 14:35 | 59.56119 | 16.82180 | 14944 ft | 342 kts | 266° |
| 2026-05-07 14:35 | 59.55915 | 16.77501 | 15598 ft | 344 kts | 266° |
| 2026-05-07 14:36 | 59.55708 | 16.72789 | 16251 ft | 346 kts | 266° |
| 2026-05-07 14:36 | 59.55339 | 16.68157 | 16884 ft | 349 kts | 257° |
| 2026-05-07 14:36 | 59.54516 | 16.63625 | 17524 ft | 353 kts | 250° |
| 2026-05-07 14:36 | 59.53562 | 16.59159 | 18154 ft | 355 kts | 249° |
| 2026-05-07 14:37 | 59.52595 | 16.54664 | 18700 ft | 357 kts | 249° |
| 2026-05-07 14:37 | 59.50649 | 16.45592 | 19761 ft | 361 kts | 250° |
| 2026-05-07 14:37 | 59.49672 | 16.41021 | 20288 ft | 363 kts | 250° |
| 2026-05-07 14:38 | 59.48690 | 16.36425 | 20800 ft | 366 kts | 250° |
| 2026-05-07 14:38 | 59.47702 | 16.31798 | 21314 ft | 368 kts | 250° |
| 2026-05-07 14:38 | 59.46707 | 16.27146 | 21802 ft | 370 kts | 250° |
| 2026-05-07 14:38 | 59.45705 | 16.22466 | 22277 ft | 372 kts | 250° |
| 2026-05-07 14:39 | 59.44694 | 16.17757 | 22756 ft | 375 kts | 250° |
| 2026-05-07 14:39 | 59.43684 | 16.13059 | 23208 ft | 377 kts | 250° |
| 2026-05-07 14:39 | 59.42660 | 16.08306 | 23660 ft | 379 kts | 250° |
| 2026-05-07 14:39 | 59.41623 | 16.03508 | 24030 ft | 382 kts | 250° |
| 2026-05-07 14:40 | 59.40581 | 15.98693 | 24393 ft | 384 kts | 250° |
| 2026-05-07 14:40 | 59.39534 | 15.93871 | 24751 ft | 387 kts | 250° |
| 2026-05-07 14:40 | 59.38477 | 15.89009 | 25099 ft | 389 kts | 250° |
| 2026-05-07 14:40 | 59.37410 | 15.84115 | 25429 ft | 391 kts | 250° |
| 2026-05-07 14:41 | 59.36335 | 15.79198 | 25778 ft | 393 kts | 250° |
| 2026-05-07 14:41 | 59.35253 | 15.74259 | 26100 ft | 396 kts | 250° |
| 2026-05-07 14:41 | 59.34161 | 15.69287 | 26426 ft | 398 kts | 250° |
| 2026-05-07 14:41 | 59.33064 | 15.64301 | 26735 ft | 400 kts | 250° |
| 2026-05-07 14:42 | 59.31957 | 15.59287 | 27043 ft | 402 kts | 250° |
| 2026-05-07 14:42 | 59.30843 | 15.54248 | 27339 ft | 404 kts | 250° |
| 2026-05-07 14:42 | 59.29720 | 15.49183 | 27627 ft | 407 kts | 250° |
| 2026-05-07 14:42 | 59.28590 | 15.44098 | 27912 ft | 409 kts | 250° |
| 2026-05-07 14:43 | 59.27452 | 15.38987 | 28196 ft | 411 kts | 250° |
| 2026-05-07 14:43 | 59.26314 | 15.33891 | 28465 ft | 413 kts | 250° |
| 2026-05-07 14:43 | 59.25160 | 15.28739 | 28741 ft | 415 kts | 250° |
| 2026-05-07 14:43 | 59.24002 | 15.23576 | 29096 ft | 415 kts | 250° |
| 2026-05-07 14:44 | 59.22844 | 15.18428 | 29530 ft | 413 kts | 250° |
| 2026-05-07 14:44 | 59.21693 | 15.13319 | 29952 ft | 411 kts | 250° |
| 2026-05-07 14:44 | 59.20544 | 15.08236 | 30272 ft | 411 kts | 250° |
| 2026-05-07 14:44 | 59.19348 | 15.03167 | 30564 ft | 413 kts | 246° |
| 2026-05-07 14:45 | 59.17831 | 14.98383 | 30861 ft | 417 kts | 239° |
| 2026-05-07 14:45 | 59.16112 | 14.93841 | 31182 ft | 416 kts | 238° |
| 2026-05-07 14:45 | 59.14387 | 14.89308 | 31462 ft | 416 kts | 238° |
| 2026-05-07 14:45 | 59.12663 | 14.84771 | 31733 ft | 416 kts | 238° |
| 2026-05-07 14:46 | 59.10950 | 14.80248 | 32034 ft | 415 kts | 238° |
| 2026-05-07 14:46 | 59.09242 | 14.75724 | 32345 ft | 414 kts | 239° |
| 2026-05-07 14:46 | 59.07538 | 14.71208 | 32621 ft | 414 kts | 239° |
| 2026-05-07 14:46 | 59.05855 | 14.66749 | 32880 ft | 414 kts | 239° |
| 2026-05-07 14:47 | 59.04150 | 14.62239 | 33148 ft | 413 kts | 239° |
| 2026-05-07 14:47 | 59.02464 | 14.57788 | 33440 ft | 413 kts | 239° |
| 2026-05-07 14:47 | 59.00763 | 14.53304 | 33718 ft | 412 kts | 238° |
| 2026-05-07 14:47 | 58.99064 | 14.48836 | 33972 ft | 412 kts | 238° |
| 2026-05-07 14:48 | 58.97359 | 14.44360 | 34181 ft | 412 kts | 238° |
| 2026-05-07 14:48 | 58.95657 | 14.39895 | 34374 ft | 412 kts | 238° |
| 2026-05-07 14:48 | 58.93951 | 14.35433 | 34556 ft | 413 kts | 238° |
| 2026-05-07 14:48 | 58.92240 | 14.30970 | 34734 ft | 413 kts | 238° |
| 2026-05-07 14:49 | 58.90527 | 14.26515 | 34922 ft | 413 kts | 238° |
| 2026-05-07 14:49 | 58.88809 | 14.22065 | 35106 ft | 413 kts | 238° |
| 2026-05-07 14:49 | 58.87090 | 14.17621 | 35277 ft | 413 kts | 237° |
| 2026-05-07 14:49 | 58.85365 | 14.13171 | 35472 ft | 413 kts | 237° |
| 2026-05-07 14:50 | 58.83640 | 14.08726 | 35612 ft | 414 kts | 237° |
| 2026-05-07 14:50 | 58.81914 | 14.04284 | 35780 ft | 414 kts | 237° |
| 2026-05-07 14:50 | 58.80183 | 13.99838 | 35947 ft | 414 kts | 237° |
| 2026-05-07 14:50 | 58.78454 | 13.95402 | 36084 ft | 414 kts | 237° |
| 2026-05-07 14:51 | 58.74973 | 13.86500 | 36092 ft | 416 kts | 237° |
| 2026-05-07 14:51 | 58.71488 | 13.77622 | 36094 ft | 415 kts | 236° |
| 2026-05-07 14:52 | 58.68003 | 13.68777 | 36099 ft | 414 kts | 236° |
| 2026-05-07 14:52 | 58.64524 | 13.59978 | 36103 ft | 414 kts | 236° |
| 2026-05-07 14:53 | 58.61038 | 13.51193 | 36097 ft | 414 kts | 236° |
| 2026-05-07 14:53 | 58.57545 | 13.42425 | 36102 ft | 414 kts | 236° |
| 2026-05-07 14:54 | 58.54044 | 13.33669 | 36100 ft | 415 kts | 236° |
| 2026-05-07 14:54 | 58.50527 | 13.24907 | 36090 ft | 416 kts | 236° |
| 2026-05-07 14:55 | 58.46993 | 13.16134 | 36091 ft | 417 kts | 236° |
| 2026-05-07 14:55 | 58.43443 | 13.07353 | 36083 ft | 418 kts | 236° |
| 2026-05-07 14:56 | 58.39880 | 12.98574 | 36076 ft | 419 kts | 236° |
| 2026-05-07 14:56 | 58.36325 | 12.89846 | 36078 ft | 420 kts | 235° |
| 2026-05-07 14:57 | 58.32708 | 12.81000 | 36078 ft | 421 kts | 235° |
| 2026-05-07 14:57 | 58.29106 | 12.72223 | 36075 ft | 421 kts | 235° |
| 2026-05-07 14:58 | 58.25515 | 12.63504 | 36076 ft | 422 kts | 235° |
| 2026-05-07 14:58 | 58.21896 | 12.54751 | 36076 ft | 422 kts | 235° |
| 2026-05-07 14:59 | 58.18270 | 12.46011 | 36081 ft | 422 kts | 235° |
| 2026-05-07 14:59 | 58.14641 | 12.37297 | 36080 ft | 421 kts | 235° |
| 2026-05-07 15:00 | 58.11005 | 12.28598 | 36082 ft | 421 kts | 235° |
| 2026-05-07 15:00 | 58.07366 | 12.19926 | 36091 ft | 421 kts | 234° |
| 2026-05-07 15:01 | 58.03722 | 12.11271 | 36106 ft | 421 kts | 234° |
| 2026-05-07 15:01 | 58.00074 | 12.02639 | 36104 ft | 421 kts | 234° |
| 2026-05-07 15:02 | 57.96417 | 11.94014 | 36103 ft | 421 kts | 234° |
| 2026-05-07 15:02 | 57.92753 | 11.85407 | 36106 ft | 421 kts | 234° |
| 2026-05-07 15:03 | 57.89080 | 11.76810 | 36103 ft | 422 kts | 234° |
| 2026-05-07 15:03 | 57.85395 | 11.68214 | 36110 ft | 422 kts | 234° |
| 2026-05-07 15:04 | 57.81703 | 11.59635 | 36105 ft | 423 kts | 234° |
| 2026-05-07 15:04 | 57.78000 | 11.51059 | 36111 ft | 423 kts | 234° |
| 2026-05-07 15:05 | 57.74288 | 11.42495 | 36118 ft | 424 kts | 233° |
| 2026-05-07 15:05 | 57.70566 | 11.33935 | 36121 ft | 424 kts | 233° |
| 2026-05-07 15:06 | 57.66832 | 11.25376 | 36126 ft | 425 kts | 233° |
| 2026-05-07 15:06 | 57.63103 | 11.16820 | 36122 ft | 425 kts | 233° |
| 2026-05-07 15:07 | 57.59381 | 11.08237 | 36122 ft | 426 kts | 234° |
| 2026-05-07 15:07 | 57.56100 | 10.99201 | 36126 ft | 424 kts | 240° |
| 2026-05-07 15:08 | 57.52961 | 10.89912 | 36125 ft | 424 kts | 240° |
| 2026-05-07 15:08 | 57.49806 | 10.80625 | 36123 ft | 425 kts | 240° |
| 2026-05-07 15:09 | 57.46631 | 10.71364 | 36128 ft | 425 kts | 239° |
| 2026-05-07 15:09 | 57.43437 | 10.62112 | 36126 ft | 426 kts | 239° |
| 2026-05-07 15:10 | 57.40754 | 10.54369 | 36124 ft | 426 kts | 239° |
| 2026-05-07 15:10 | 57.37542 | 10.45135 | 36125 ft | 426 kts | 239° |
| 2026-05-07 15:11 | 57.34344 | 10.35978 | 36116 ft | 427 kts | 239° |
| 2026-05-07 15:11 | 57.31115 | 10.26765 | 36113 ft | 427 kts | 239° |
| 2026-05-07 15:12 | 57.27878 | 10.17562 | 36111 ft | 427 kts | 239° |
| 2026-05-07 15:12 | 57.24628 | 10.08361 | 36105 ft | 427 kts | 239° |
| 2026-05-07 15:13 | 57.21375 | 9.99187 | 36105 ft | 427 kts | 239° |
| 2026-05-07 15:13 | 57.18116 | 9.90027 | 36103 ft | 427 kts | 238° |
| 2026-05-07 15:14 | 57.14849 | 9.80883 | 36100 ft | 427 kts | 238° |
| 2026-05-07 15:14 | 57.11572 | 9.71745 | 36103 ft | 427 kts | 238° |
| 2026-05-07 15:15 | 57.08291 | 9.62630 | 36102 ft | 428 kts | 238° |
| 2026-05-07 15:15 | 57.05001 | 9.53525 | 36119 ft | 428 kts | 238° |
| 2026-05-07 15:16 | 57.01702 | 9.44427 | 36105 ft | 428 kts | 238° |
| 2026-05-07 15:16 | 56.98393 | 9.35339 | 36105 ft | 428 kts | 238° |
| 2026-05-07 15:17 | 56.95078 | 9.26269 | 36120 ft | 429 kts | 238° |
| 2026-05-07 15:17 | 56.91750 | 9.17195 | 36116 ft | 429 kts | 238° |
| 2026-05-07 15:18 | 56.88408 | 9.08119 | 36115 ft | 430 kts | 238° |
| 2026-05-07 15:18 | 56.85062 | 8.99065 | 36107 ft | 430 kts | 237° |
| 2026-05-07 15:19 | 56.81702 | 8.90009 | 36112 ft | 431 kts | 237° |
| 2026-05-07 15:19 | 56.78335 | 8.80966 | 36108 ft | 431 kts | 237° |
| 2026-05-07 15:20 | 56.74958 | 8.71931 | 36110 ft | 431 kts | 237° |
| 2026-05-07 15:20 | 56.71572 | 8.62906 | 36114 ft | 432 kts | 237° |
| 2026-05-07 15:21 | 56.68179 | 8.53894 | 36112 ft | 432 kts | 237° |
| 2026-05-07 15:21 | 56.64775 | 8.44887 | 36110 ft | 432 kts | 237° |
| 2026-05-07 15:22 | 56.61364 | 8.35896 | 36117 ft | 432 kts | 237° |
| 2026-05-07 15:22 | 56.57943 | 8.26912 | 36122 ft | 433 kts | 237° |
| 2026-05-07 15:23 | 56.54516 | 8.17944 | 36114 ft | 433 kts | 236° |
| 2026-05-07 15:23 | 56.51074 | 8.08972 | 36122 ft | 433 kts | 236° |
| 2026-05-07 15:24 | 56.47630 | 8.00026 | 36124 ft | 433 kts | 236° |
| 2026-05-07 15:24 | 56.44177 | 7.91090 | 36122 ft | 433 kts | 236° |
| 2026-05-07 15:25 | 56.40740 | 7.82228 | 36130 ft | 433 kts | 236° |
| 2026-05-07 15:25 | 56.37250 | 7.73264 | 36126 ft | 434 kts | 236° |
| 2026-05-07 15:26 | 56.33801 | 7.64434 | 36125 ft | 434 kts | 236° |
| 2026-05-07 15:26 | 56.30319 | 7.55556 | 36128 ft | 434 kts | 236° |
| 2026-05-07 15:27 | 56.26809 | 7.46635 | 36125 ft | 434 kts | 236° |
| 2026-05-07 15:27 | 56.23311 | 7.37781 | 36130 ft | 434 kts | 235° |
| 2026-05-07 15:28 | 56.19830 | 7.29000 | 36127 ft | 434 kts | 235° |
| 2026-05-07 15:28 | 56.16319 | 7.20173 | 36127 ft | 435 kts | 235° |
| 2026-05-07 15:29 | 56.12776 | 7.11300 | 36131 ft | 435 kts | 235° |
| 2026-05-07 15:29 | 56.09248 | 7.02498 | 36134 ft | 435 kts | 235° |
| 2026-05-07 15:30 | 56.05713 | 6.93709 | 36131 ft | 435 kts | 235° |
| 2026-05-07 15:30 | 56.02193 | 6.84987 | 36128 ft | 435 kts | 234° |
| 2026-05-07 15:31 | 55.98641 | 6.76219 | 36127 ft | 435 kts | 234° |
| 2026-05-07 15:31 | 55.95081 | 6.67464 | 36127 ft | 436 kts | 234° |
| 2026-05-07 15:32 | 55.91516 | 6.58727 | 36129 ft | 436 kts | 234° |
| 2026-05-07 15:32 | 55.87941 | 6.49995 | 36126 ft | 436 kts | 234° |
| 2026-05-07 15:33 | 55.84360 | 6.41280 | 36130 ft | 436 kts | 234° |
| 2026-05-07 15:33 | 55.80770 | 6.32576 | 36129 ft | 436 kts | 234° |
| 2026-05-07 15:34 | 55.77173 | 6.23884 | 36126 ft | 436 kts | 234° |
| 2026-05-07 15:34 | 55.73569 | 6.15206 | 36126 ft | 437 kts | 234° |
| 2026-05-07 15:35 | 55.69960 | 6.06546 | 36126 ft | 437 kts | 234° |
| 2026-05-07 15:35 | 55.66340 | 5.97893 | 36128 ft | 437 kts | 233° |
| 2026-05-07 15:36 | 55.62716 | 5.89259 | 36127 ft | 437 kts | 233° |
| 2026-05-07 15:36 | 55.59083 | 5.80633 | 36130 ft | 437 kts | 233° |
| 2026-05-07 15:37 | 55.55442 | 5.72021 | 36127 ft | 437 kts | 233° |
| 2026-05-07 15:37 | 55.51821 | 5.63484 | 36128 ft | 437 kts | 233° |
| 2026-05-07 15:38 | 55.48167 | 5.54898 | 36135 ft | 437 kts | 233° |
| 2026-05-07 15:38 | 55.44501 | 5.46316 | 36127 ft | 438 kts | 233° |
| 2026-05-07 15:39 | 55.40830 | 5.37751 | 36127 ft | 438 kts | 233° |
| 2026-05-07 15:39 | 55.37152 | 5.29201 | 36138 ft | 438 kts | 233° |
| 2026-05-07 15:40 | 55.33489 | 5.20711 | 36127 ft | 438 kts | 233° |
| 2026-05-07 15:40 | 55.29800 | 5.12188 | 36131 ft | 438 kts | 232° |
| 2026-05-07 15:41 | 55.26077 | 5.03728 | 36131 ft | 438 kts | 228° |
| 2026-05-07 15:41 | 55.21426 | 4.96909 | 36123 ft | 438 kts | 210° |
| 2026-05-07 15:42 | 55.16061 | 4.91875 | 36125 ft | 438 kts | 207° |
| 2026-05-07 15:42 | 55.10664 | 4.86927 | 36120 ft | 438 kts | 208° |
| 2026-05-07 15:43 | 55.05281 | 4.81933 | 36127 ft | 439 kts | 208° |
| 2026-05-07 15:43 | 54.99897 | 4.76908 | 36131 ft | 439 kts | 208° |
| 2026-05-07 15:44 | 54.94606 | 4.71975 | 36125 ft | 440 kts | 208° |
| 2026-05-07 15:44 | 54.89203 | 4.66954 | 36122 ft | 440 kts | 208° |
| 2026-05-07 15:45 | 54.83833 | 4.61980 | 36130 ft | 441 kts | 208° |
| 2026-05-07 15:45 | 54.78412 | 4.56975 | 36128 ft | 441 kts | 207° |
| 2026-05-07 15:46 | 54.70273 | 4.49488 | 36123 ft | 441 kts | 207° |
| 2026-05-07 15:47 | 54.64852 | 4.44518 | 36125 ft | 441 kts | 207° |
| 2026-05-07 15:47 | 54.59419 | 4.39555 | 36121 ft | 441 kts | 207° |
| 2026-05-07 15:48 | 54.53986 | 4.34605 | 36122 ft | 441 kts | 207° |
| 2026-05-07 15:48 | 54.48574 | 4.29686 | 36124 ft | 441 kts | 207° |
| 2026-05-07 15:49 | 54.43131 | 4.24751 | 36117 ft | 441 kts | 207° |
| 2026-05-07 15:49 | 54.37718 | 4.19858 | 36124 ft | 441 kts | 207° |
| 2026-05-07 15:50 | 54.32280 | 4.14957 | 36119 ft | 441 kts | 207° |
| 2026-05-07 15:50 | 54.26841 | 4.10070 | 36120 ft | 441 kts | 207° |
| 2026-05-07 15:51 | 54.21398 | 4.05194 | 36118 ft | 441 kts | 207° |
| 2026-05-07 15:51 | 54.15945 | 4.00324 | 36123 ft | 442 kts | 207° |
| 2026-05-07 15:52 | 54.10526 | 3.95498 | 36117 ft | 442 kts | 207° |
| 2026-05-07 15:52 | 54.05057 | 3.90641 | 36120 ft | 442 kts | 206° |
| 2026-05-07 15:53 | 53.99622 | 3.85829 | 36114 ft | 442 kts | 206° |
| 2026-05-07 15:53 | 53.94154 | 3.81011 | 36114 ft | 442 kts | 206° |
| 2026-05-07 15:54 | 53.88673 | 3.76204 | 36121 ft | 442 kts | 206° |
| 2026-05-07 15:54 | 53.83197 | 3.71412 | 36115 ft | 443 kts | 206° |
| 2026-05-07 15:55 | 53.77744 | 3.66652 | 36119 ft | 443 kts | 206° |
| 2026-05-07 15:55 | 53.72257 | 3.61876 | 36117 ft | 443 kts | 206° |
| 2026-05-07 15:56 | 53.66810 | 3.57148 | 36125 ft | 443 kts | 206° |
| 2026-05-07 15:56 | 53.61330 | 3.52405 | 36118 ft | 442 kts | 206° |
| 2026-05-07 15:57 | 53.56773 | 3.48457 | 36123 ft | 442 kts | 206° |
| 2026-05-07 15:57 | 53.51296 | 3.43699 | 36120 ft | 442 kts | 206° |
| 2026-05-07 15:58 | 53.45828 | 3.38960 | 36113 ft | 442 kts | 206° |
| 2026-05-07 15:58 | 53.40384 | 3.34261 | 36115 ft | 442 kts | 206° |
| 2026-05-07 15:59 | 53.34903 | 3.29590 | 36111 ft | 441 kts | 206° |
| 2026-05-07 15:59 | 53.29417 | 3.24949 | 36108 ft | 441 kts | 206° |
| 2026-05-07 16:00 | 53.23959 | 3.20337 | 36104 ft | 441 kts | 206° |
| 2026-05-07 16:00 | 53.18492 | 3.15704 | 36103 ft | 440 kts | 206° |
| 2026-05-07 16:01 | 53.13026 | 3.11077 | 36101 ft | 440 kts | 206° |
| 2026-05-07 16:01 | 53.07581 | 3.06501 | 36108 ft | 441 kts | 206° |
| 2026-05-07 16:02 | 53.02094 | 3.01909 | 36111 ft | 441 kts | 206° |
| 2026-05-07 16:02 | 52.96614 | 2.97331 | 36105 ft | 440 kts | 206° |
| 2026-05-07 16:03 | 52.91139 | 2.92765 | 36101 ft | 440 kts | 206° |
| 2026-05-07 16:03 | 52.85701 | 2.88228 | 36109 ft | 439 kts | 206° |
| 2026-05-07 16:04 | 52.80234 | 2.83679 | 36107 ft | 438 kts | 206° |
| 2026-05-07 16:04 | 52.77646 | 2.81014 | 36090 ft | 438 kts | 219° |
| 2026-05-07 16:04 | 52.75431 | 2.77563 | 36113 ft | 438 kts | 228° |
| 2026-05-07 16:04 | 52.73616 | 2.73531 | 36090 ft | 439 kts | 240° |
| 2026-05-07 16:05 | 52.72182 | 2.69147 | 36114 ft | 438 kts | 242° |
| 2026-05-07 16:05 | 52.69397 | 2.60191 | 36110 ft | 438 kts | 242° |
| 2026-05-07 16:06 | 52.66599 | 2.51266 | 36095 ft | 437 kts | 241° |
| 2026-05-07 16:06 | 52.63784 | 2.42452 | 36096 ft | 437 kts | 241° |
| 2026-05-07 16:07 | 52.60934 | 2.33620 | 36105 ft | 436 kts | 241° |
| 2026-05-07 16:07 | 52.58072 | 2.24791 | 36096 ft | 436 kts | 241° |
| 2026-05-07 16:08 | 52.55215 | 2.16004 | 36098 ft | 436 kts | 241° |
| 2026-05-07 16:08 | 52.52348 | 2.07219 | 36098 ft | 435 kts | 241° |
| 2026-05-07 16:09 | 52.49494 | 1.98502 | 36093 ft | 435 kts | 241° |
| 2026-05-07 16:09 | 52.46635 | 1.89801 | 36097 ft | 435 kts | 241° |
| 2026-05-07 16:10 | 52.43760 | 1.81081 | 36096 ft | 434 kts | 241° |
| 2026-05-07 16:10 | 52.40873 | 1.72356 | 36094 ft | 434 kts | 241° |
| 2026-05-07 16:11 | 52.37988 | 1.63664 | 36094 ft | 434 kts | 240° |
| 2026-05-07 16:11 | 52.35113 | 1.55031 | 36092 ft | 434 kts | 240° |
| 2026-05-07 16:12 | 52.32197 | 1.46414 | 36092 ft | 433 kts | 239° |
| 2026-05-07 16:12 | 52.29169 | 1.37885 | 36081 ft | 433 kts | 239° |
| 2026-05-07 16:13 | 52.26135 | 1.29405 | 36082 ft | 433 kts | 239° |
| 2026-05-07 16:13 | 52.23122 | 1.20967 | 36082 ft | 433 kts | 239° |
| 2026-05-07 16:14 | 52.20083 | 1.12459 | 36074 ft | 432 kts | 239° |
| 2026-05-07 16:14 | 52.17050 | 1.03996 | 36078 ft | 432 kts | 239° |
| 2026-05-07 16:15 | 52.14014 | 0.95550 | 36078 ft | 432 kts | 239° |
| 2026-05-07 16:15 | 52.10992 | 0.87174 | 36074 ft | 432 kts | 239° |
| 2026-05-07 16:16 | 52.07940 | 0.78742 | 36076 ft | 431 kts | 239° |
| 2026-05-07 16:16 | 52.04891 | 0.70341 | 36075 ft | 431 kts | 239° |
| 2026-05-07 16:17 | 52.01669 | 0.62152 | 36061 ft | 430 kts | 230° |
| 2026-05-07 16:17 | 51.97594 | 0.55124 | 36067 ft | 430 kts | 226° |
| 2026-05-07 16:18 | 51.93415 | 0.48183 | 36074 ft | 429 kts | 226° |
| 2026-05-07 16:18 | 51.89260 | 0.41241 | 36075 ft | 429 kts | 226° |
| 2026-05-07 16:19 | 51.85112 | 0.34277 | 36077 ft | 429 kts | 226° |
| 2026-05-07 16:19 | 51.80976 | 0.27332 | 36074 ft | 428 kts | 226° |
| 2026-05-07 16:20 | 51.76863 | 0.20444 | 36074 ft | 428 kts | 226° |
| 2026-05-07 16:20 | 51.72721 | 0.13525 | 36069 ft | 428 kts | 226° |
| 2026-05-07 16:21 | 51.68583 | 0.06634 | 36065 ft | 427 kts | 226° |
| 2026-05-07 16:21 | 51.64434 | -0.00257 | 36071 ft | 427 kts | 226° |
| 2026-05-07 16:22 | 51.60312 | -0.07083 | 36069 ft | 427 kts | 226° |
| 2026-05-07 16:22 | 51.56163 | -0.13935 | 36069 ft | 427 kts | 226° |
| 2026-05-07 16:23 | 51.52010 | -0.20773 | 36046 ft | 427 kts | 226° |
| 2026-05-07 16:23 | 51.47853 | -0.27600 | 36048 ft | 427 kts | 226° |
| 2026-05-07 16:24 | 51.43718 | -0.34372 | 36049 ft | 427 kts | 226° |
| 2026-05-07 16:24 | 51.39556 | -0.41170 | 36057 ft | 427 kts | 226° |
| 2026-05-07 16:25 | 51.35383 | -0.47966 | 36046 ft | 427 kts | 226° |
| 2026-05-07 16:25 | 51.31235 | -0.54702 | 36050 ft | 427 kts | 226° |
| 2026-05-07 16:26 | 51.27069 | -0.61451 | 36048 ft | 427 kts | 226° |
| 2026-05-07 16:26 | 51.22894 | -0.68194 | 36050 ft | 426 kts | 226° |
| 2026-05-07 16:27 | 51.18713 | -0.74930 | 36046 ft | 426 kts | 226° |
| 2026-05-07 16:27 | 51.14523 | -0.81660 | 36049 ft | 426 kts | 226° |
| 2026-05-07 16:28 | 51.10349 | -0.88349 | 36048 ft | 426 kts | 226° |
| 2026-05-07 16:28 | 51.06193 | -0.94990 | 36049 ft | 426 kts | 226° |
| 2026-05-07 16:29 | 51.02001 | -1.01669 | 36052 ft | 426 kts | 226° |
| 2026-05-07 16:29 | 50.97802 | -1.08341 | 36045 ft | 426 kts | 226° |
| 2026-05-07 16:30 | 50.93612 | -1.14982 | 36047 ft | 426 kts | 226° |
| 2026-05-07 16:30 | 50.89431 | -1.21590 | 36047 ft | 426 kts | 226° |
| 2026-05-07 16:31 | 50.85215 | -1.28237 | 36052 ft | 426 kts | 226° |
| 2026-05-07 16:31 | 50.81006 | -1.34855 | 36048 ft | 426 kts | 226° |
| 2026-05-07 16:32 | 50.76814 | -1.41426 | 36046 ft | 427 kts | 226° |
| 2026-05-07 16:32 | 50.72624 | -1.47979 | 36044 ft | 426 kts | 226° |
| 2026-05-07 16:33 | 50.68395 | -1.54575 | 36048 ft | 426 kts | 225° |
| 2026-05-07 16:33 | 50.64194 | -1.61110 | 36039 ft | 427 kts | 225° |
| 2026-05-07 16:34 | 50.59965 | -1.67673 | 36045 ft | 426 kts | 225° |
| 2026-05-07 16:34 | 50.55729 | -1.74231 | 36041 ft | 427 kts | 225° |
| 2026-05-07 16:35 | 50.51284 | -1.80407 | 36034 ft | 428 kts | 214° |
| 2026-05-07 16:35 | 50.46264 | -1.85455 | 36038 ft | 428 kts | 213° |
| 2026-05-07 16:36 | 50.41230 | -1.90456 | 36033 ft | 429 kts | 214° |
| 2026-05-07 16:36 | 50.36239 | -1.95475 | 36031 ft | 429 kts | 214° |
| 2026-05-07 16:37 | 50.31205 | -2.00554 | 36029 ft | 429 kts | 214° |
| 2026-05-07 16:37 | 50.26171 | -2.05621 | 36026 ft | 430 kts | 214° |
| 2026-05-07 16:38 | 50.21144 | -2.10609 | 36023 ft | 431 kts | 213° |
| 2026-05-07 16:38 | 50.16044 | -2.15562 | 36020 ft | 431 kts | 213° |
| 2026-05-07 16:39 | 50.10950 | -2.20502 | 36020 ft | 431 kts | 213° |
| 2026-05-07 16:39 | 50.05850 | -2.25448 | 36017 ft | 432 kts | 213° |
| 2026-05-07 16:40 | 50.00748 | -2.30389 | 36022 ft | 432 kts | 213° |
| 2026-05-07 16:40 | 49.95682 | -2.35284 | 36017 ft | 432 kts | 213° |
| 2026-05-07 16:41 | 49.90572 | -2.40205 | 36017 ft | 432 kts | 213° |
| 2026-05-07 16:41 | 49.85463 | -2.45115 | 36015 ft | 432 kts | 213° |
| 2026-05-07 16:42 | 49.80355 | -2.50016 | 36017 ft | 432 kts | 213° |
| 2026-05-07 16:42 | 49.75242 | -2.54910 | 36015 ft | 432 kts | 213° |
| 2026-05-07 16:43 | 49.70126 | -2.59795 | 36015 ft | 432 kts | 213° |
| 2026-05-07 16:43 | 49.64995 | -2.64681 | 35997 ft | 432 kts | 213° |
| 2026-05-07 16:44 | 49.60737 | -2.68727 | 35998 ft | 432 kts | 213° |
| 2026-05-07 16:44 | 49.54772 | -2.74381 | 35994 ft | 432 kts | 213° |
| 2026-05-07 16:45 | 49.50476 | -2.78443 | 35993 ft | 432 kts | 213° |
| 2026-05-07 16:45 | 49.45370 | -2.83259 | 35998 ft | 433 kts | 213° |
| 2026-05-07 16:46 | 49.40225 | -2.88101 | 35992 ft | 433 kts | 213° |
| 2026-05-07 16:46 | 49.35077 | -2.92933 | 35988 ft | 433 kts | 212° |
| 2026-05-07 16:47 | 49.29935 | -2.97748 | 35999 ft | 433 kts | 212° |
| 2026-05-07 16:47 | 49.24787 | -3.02555 | 35997 ft | 433 kts | 212° |
| 2026-05-07 16:48 | 49.19667 | -3.07326 | 35976 ft | 434 kts | 212° |
| 2026-05-07 16:48 | 49.14503 | -3.12125 | 35981 ft | 434 kts | 212° |
| 2026-05-07 16:49 | 49.09336 | -3.16915 | 35984 ft | 434 kts | 212° |
| 2026-05-07 16:49 | 49.04159 | -3.21703 | 35979 ft | 434 kts | 212° |
| 2026-05-07 16:50 | 48.99014 | -3.26450 | 35976 ft | 434 kts | 212° |
| 2026-05-07 16:50 | 48.93836 | -3.31215 | 35970 ft | 435 kts | 212° |
| 2026-05-07 16:51 | 48.88654 | -3.35973 | 35975 ft | 435 kts | 212° |
| 2026-05-07 16:51 | 48.83499 | -3.40694 | 35970 ft | 435 kts | 212° |
| 2026-05-07 16:52 | 48.78309 | -3.45435 | 35965 ft | 435 kts | 212° |
| 2026-05-07 16:52 | 48.73116 | -3.50168 | 35968 ft | 435 kts | 212° |
| 2026-05-07 16:53 | 48.67925 | -3.54887 | 35971 ft | 436 kts | 212° |
| 2026-05-07 16:53 | 48.62716 | -3.59611 | 35963 ft | 436 kts | 212° |
| 2026-05-07 16:54 | 48.57537 | -3.64297 | 35968 ft | 436 kts | 212° |
| 2026-05-07 16:54 | 48.52318 | -3.69007 | 35960 ft | 437 kts | 212° |
| 2026-05-07 16:55 | 48.47089 | -3.73715 | 35969 ft | 437 kts | 212° |
| 2026-05-07 16:55 | 48.41901 | -3.78374 | 35972 ft | 437 kts | 212° |
| 2026-05-07 16:56 | 48.36659 | -3.83071 | 35970 ft | 437 kts | 212° |
| 2026-05-07 16:56 | 48.28854 | -3.90044 | 35985 ft | 436 kts | 212° |
| 2026-05-07 16:57 | 48.23635 | -3.94692 | 35985 ft | 436 kts | 212° |
| 2026-05-07 16:57 | 48.18406 | -3.99338 | 35991 ft | 437 kts | 212° |
| 2026-05-07 16:58 | 48.13165 | -4.03984 | 35997 ft | 437 kts | 212° |
| 2026-05-07 16:58 | 48.07925 | -4.08618 | 35993 ft | 437 kts | 212° |
| 2026-05-07 16:59 | 48.02723 | -4.13208 | 35990 ft | 437 kts | 212° |
| 2026-05-07 16:59 | 47.97464 | -4.17836 | 35994 ft | 437 kts | 212° |
| 2026-05-07 17:00 | 47.92214 | -4.22447 | 35963 ft | 437 kts | 212° |
| 2026-05-07 17:00 | 47.87013 | -4.27004 | 35991 ft | 437 kts | 212° |
| 2026-05-07 17:01 | 47.81684 | -4.31388 | 35990 ft | 439 kts | 204° |
| 2026-05-07 17:01 | 47.75827 | -4.34046 | 35991 ft | 441 kts | 197° |
| 2026-05-07 17:02 | 47.69879 | -4.36382 | 35989 ft | 441 kts | 196° |
| 2026-05-07 17:02 | 47.63980 | -4.38724 | 35989 ft | 441 kts | 197° |
| 2026-05-07 17:03 | 47.58045 | -4.41119 | 35988 ft | 442 kts | 197° |
| 2026-05-07 17:03 | 47.52102 | -4.43531 | 35988 ft | 442 kts | 197° |
| 2026-05-07 17:04 | 47.46209 | -4.45921 | 35986 ft | 442 kts | 197° |
| 2026-05-07 17:04 | 47.40285 | -4.48317 | 35989 ft | 441 kts | 197° |
| 2026-05-07 17:05 | 47.34358 | -4.50707 | 35982 ft | 441 kts | 197° |
| 2026-05-07 17:05 | 47.28434 | -4.53091 | 35985 ft | 441 kts | 197° |
| 2026-05-07 17:06 | 47.22558 | -4.55450 | 35987 ft | 440 kts | 197° |
| 2026-05-07 17:06 | 47.16629 | -4.57825 | 35984 ft | 440 kts | 197° |
| 2026-05-07 17:07 | 47.10755 | -4.60172 | 35986 ft | 439 kts | 197° |
| 2026-05-07 17:07 | 47.04840 | -4.62530 | 35986 ft | 439 kts | 197° |
| 2026-05-07 17:08 | 46.98936 | -4.64878 | 35981 ft | 439 kts | 197° |
| 2026-05-07 17:08 | 46.93070 | -4.67206 | 35980 ft | 439 kts | 197° |
| 2026-05-07 17:09 | 46.87175 | -4.69540 | 35978 ft | 439 kts | 197° |
| 2026-05-07 17:09 | 46.81273 | -4.71872 | 35978 ft | 439 kts | 197° |
| 2026-05-07 17:10 | 46.75380 | -4.74195 | 35980 ft | 439 kts | 197° |
| 2026-05-07 17:10 | 46.69508 | -4.76504 | 35981 ft | 439 kts | 197° |
| 2026-05-07 17:11 | 46.63610 | -4.78819 | 35974 ft | 439 kts | 197° |
| 2026-05-07 17:11 | 46.57705 | -4.81130 | 35973 ft | 439 kts | 197° |
| 2026-05-07 17:12 | 46.51773 | -4.83447 | 35970 ft | 440 kts | 197° |
| 2026-05-07 17:12 | 46.45871 | -4.85748 | 35978 ft | 440 kts | 197° |
| 2026-05-07 17:13 | 46.39957 | -4.88047 | 35967 ft | 440 kts | 197° |
| 2026-05-07 17:13 | 46.34083 | -4.90326 | 35968 ft | 440 kts | 197° |
| 2026-05-07 17:14 | 46.28132 | -4.92630 | 35966 ft | 440 kts | 197° |
| 2026-05-07 17:14 | 46.22259 | -4.94898 | 35971 ft | 440 kts | 197° |
| 2026-05-07 17:15 | 46.16342 | -4.97179 | 35959 ft | 440 kts | 197° |
| 2026-05-07 17:15 | 46.10426 | -4.99454 | 35969 ft | 440 kts | 197° |
| 2026-05-07 17:16 | 46.04511 | -5.01723 | 35959 ft | 440 kts | 197° |
| 2026-05-07 17:16 | 45.98604 | -5.03984 | 35961 ft | 440 kts | 197° |
| 2026-05-07 17:17 | 45.92690 | -5.06244 | 35963 ft | 439 kts | 197° |
| 2026-05-07 17:17 | 45.86779 | -5.08496 | 35961 ft | 439 kts | 197° |
| 2026-05-07 17:18 | 45.80871 | -5.10743 | 35952 ft | 439 kts | 197° |
| 2026-05-07 17:18 | 45.74962 | -5.12986 | 35953 ft | 439 kts | 197° |
| 2026-05-07 17:19 | 45.69052 | -5.15223 | 35952 ft | 439 kts | 197° |
| 2026-05-07 17:19 | 45.63153 | -5.17452 | 35952 ft | 439 kts | 197° |
| 2026-05-07 17:20 | 45.57249 | -5.19678 | 35949 ft | 439 kts | 197° |
| 2026-05-07 17:20 | 45.51344 | -5.21899 | 35945 ft | 439 kts | 197° |
| 2026-05-07 17:21 | 45.45435 | -5.24117 | 35942 ft | 439 kts | 197° |
| 2026-05-07 17:21 | 45.39528 | -5.26330 | 35941 ft | 439 kts | 197° |
| 2026-05-07 17:22 | 45.33618 | -5.28539 | 35938 ft | 439 kts | 197° |
| 2026-05-07 17:22 | 45.27750 | -5.30727 | 35939 ft | 439 kts | 197° |
| 2026-05-07 17:23 | 45.21860 | -5.32919 | 35934 ft | 439 kts | 197° |
| 2026-05-07 17:23 | 45.15945 | -5.35115 | 35930 ft | 439 kts | 197° |
| 2026-05-07 17:24 | 45.10048 | -5.37301 | 35930 ft | 439 kts | 197° |
| 2026-05-07 17:24 | 45.04142 | -5.39485 | 35929 ft | 439 kts | 197° |
| 2026-05-07 17:25 | 44.98232 | -5.41665 | 35927 ft | 439 kts | 197° |
| 2026-05-07 17:25 | 44.92314 | -5.43844 | 35928 ft | 439 kts | 197° |
| 2026-05-07 17:26 | 44.86438 | -5.46003 | 35889 ft | 439 kts | 197° |
| 2026-05-07 17:26 | 44.80526 | -5.48171 | 35912 ft | 438 kts | 198° |
| 2026-05-07 17:27 | 44.74614 | -5.50334 | 35920 ft | 439 kts | 198° |
| 2026-05-07 17:27 | 44.68692 | -5.52497 | 35918 ft | 440 kts | 198° |
| 2026-05-07 17:28 | 44.62755 | -5.54661 | 35920 ft | 441 kts | 198° |
| 2026-05-07 17:28 | 44.57057 | -5.57576 | 35925 ft | 437 kts | 207° |
| 2026-05-07 17:29 | 44.51501 | -5.61071 | 35910 ft | 438 kts | 207° |
| 2026-05-07 17:29 | 44.45935 | -5.64574 | 35906 ft | 438 kts | 207° |
| 2026-05-07 17:30 | 44.40390 | -5.68016 | 35908 ft | 439 kts | 207° |
| 2026-05-07 17:30 | 44.34802 | -5.71454 | 35905 ft | 439 kts | 207° |
| 2026-05-07 17:31 | 44.29212 | -5.74881 | 35900 ft | 438 kts | 207° |
| 2026-05-07 17:31 | 44.23613 | -5.78305 | 35902 ft | 437 kts | 207° |
| 2026-05-07 17:32 | 44.18070 | -5.81689 | 35899 ft | 437 kts | 207° |
| 2026-05-07 17:32 | 44.13403 | -5.84533 | 35897 ft | 436 kts | 207° |
| 2026-05-07 17:33 | 44.07872 | -5.87898 | 35894 ft | 436 kts | 207° |
| 2026-05-07 17:33 | 44.02304 | -5.91278 | 35895 ft | 436 kts | 207° |
| 2026-05-07 17:34 | 43.95839 | -5.95194 | 35891 ft | 435 kts | 207° |
| 2026-05-07 17:34 | 43.91219 | -5.97987 | 35888 ft | 435 kts | 207° |
| 2026-05-07 17:35 | 43.85650 | -6.01347 | 35886 ft | 436 kts | 208° |
| 2026-05-07 17:35 | 43.80078 | -6.04702 | 35882 ft | 436 kts | 208° |
| 2026-05-07 17:36 | 43.74544 | -6.08028 | 35882 ft | 437 kts | 208° |
| 2026-05-07 17:36 | 43.68957 | -6.11378 | 35883 ft | 437 kts | 208° |
| 2026-05-07 17:37 | 43.63365 | -6.14724 | 35889 ft | 438 kts | 208° |
| 2026-05-07 17:37 | 43.57758 | -6.18073 | 35888 ft | 438 kts | 208° |
| 2026-05-07 17:38 | 43.52207 | -6.21382 | 35885 ft | 439 kts | 208° |
| 2026-05-07 17:38 | 43.46587 | -6.24724 | 35890 ft | 439 kts | 208° |
| 2026-05-07 17:39 | 43.40969 | -6.28059 | 35878 ft | 439 kts | 208° |
| 2026-05-07 17:39 | 43.35372 | -6.31374 | 35880 ft | 440 kts | 208° |
| 2026-05-07 17:40 | 43.29795 | -6.34672 | 35864 ft | 440 kts | 208° |
| 2026-05-07 17:40 | 43.24168 | -6.37992 | 35872 ft | 440 kts | 208° |
| 2026-05-07 17:41 | 43.18537 | -6.41307 | 35877 ft | 440 kts | 208° |
| 2026-05-07 17:41 | 43.12907 | -6.44615 | 35873 ft | 440 kts | 208° |
| 2026-05-07 17:42 | 43.07290 | -6.47909 | 35853 ft | 438 kts | 208° |
| 2026-05-07 17:42 | 43.01697 | -6.51181 | 35872 ft | 436 kts | 208° |
| 2026-05-07 17:43 | 42.96156 | -6.54417 | 35870 ft | 435 kts | 209° |
| 2026-05-07 17:43 | 42.90589 | -6.57665 | 35861 ft | 434 kts | 209° |
| 2026-05-07 17:44 | 42.85036 | -6.60895 | 35867 ft | 432 kts | 209° |
| 2026-05-07 17:44 | 42.79546 | -6.64084 | 35873 ft | 431 kts | 209° |
| 2026-05-07 17:45 | 42.74031 | -6.67280 | 35864 ft | 430 kts | 209° |
| 2026-05-07 17:45 | 42.68525 | -6.70465 | 35867 ft | 428 kts | 209° |
| 2026-05-07 17:46 | 42.63038 | -6.73635 | 35862 ft | 428 kts | 209° |
| 2026-05-07 17:46 | 42.57591 | -6.76773 | 35878 ft | 427 kts | 209° |
| 2026-05-07 17:47 | 42.52124 | -6.79917 | 35864 ft | 426 kts | 209° |
| 2026-05-07 17:47 | 42.46655 | -6.83057 | 35865 ft | 425 kts | 209° |
| 2026-05-07 17:48 | 42.41243 | -6.86158 | 35866 ft | 424 kts | 209° |
| 2026-05-07 17:48 | 42.35818 | -6.89260 | 35868 ft | 422 kts | 209° |
| 2026-05-07 17:49 | 42.30397 | -6.92354 | 35869 ft | 422 kts | 209° |
| 2026-05-07 17:49 | 42.24992 | -6.95434 | 35862 ft | 421 kts | 209° |
| 2026-05-07 17:50 | 42.19603 | -6.98499 | 35872 ft | 419 kts | 209° |
| 2026-05-07 17:50 | 42.14253 | -7.01537 | 35878 ft | 419 kts | 209° |
| 2026-05-07 17:51 | 42.08863 | -7.04592 | 35874 ft | 419 kts | 209° |
| 2026-05-07 17:51 | 42.03480 | -7.07636 | 35877 ft | 419 kts | 209° |
| 2026-05-07 17:52 | 41.98103 | -7.10672 | 35869 ft | 419 kts | 209° |
| 2026-05-07 17:52 | 41.92729 | -7.13700 | 35871 ft | 418 kts | 209° |
| 2026-05-07 17:53 | 41.87399 | -7.16699 | 35869 ft | 418 kts | 209° |
| 2026-05-07 17:53 | 41.82025 | -7.19718 | 35865 ft | 419 kts | 209° |
| 2026-05-07 17:54 | 41.76634 | -7.22740 | 35867 ft | 419 kts | 209° |
| 2026-05-07 17:54 | 41.71514 | -7.26284 | 35879 ft | 412 kts | 216° |
| 2026-05-07 17:55 | 41.66598 | -7.30149 | 35867 ft | 412 kts | 216° |
| 2026-05-07 17:55 | 41.61637 | -7.34037 | 35876 ft | 412 kts | 216° |
| 2026-05-07 17:56 | 41.56671 | -7.37900 | 35866 ft | 413 kts | 216° |
| 2026-05-07 17:56 | 41.51728 | -7.41725 | 35870 ft | 412 kts | 216° |
| 2026-05-07 17:57 | 41.47568 | -7.44936 | 35876 ft | 411 kts | 216° |
| 2026-05-07 17:57 | 41.41805 | -7.49377 | 35875 ft | 412 kts | 216° |
| 2026-05-07 17:58 | 41.36836 | -7.53199 | 35877 ft | 411 kts | 216° |
| 2026-05-07 17:58 | 41.31919 | -7.56974 | 35881 ft | 410 kts | 216° |
| 2026-05-07 17:59 | 41.26982 | -7.60757 | 35878 ft | 408 kts | 216° |
| 2026-05-07 17:59 | 41.22055 | -7.64527 | 35890 ft | 408 kts | 216° |
| 2026-05-07 18:00 | 41.17164 | -7.68263 | 35883 ft | 407 kts | 216° |
| 2026-05-07 18:00 | 41.12290 | -7.71979 | 35883 ft | 407 kts | 216° |
| 2026-05-07 18:01 | 41.07366 | -7.75730 | 35907 ft | 412 kts | 216° |
| 2026-05-07 18:01 | 41.02438 | -7.79481 | 35906 ft | 421 kts | 215° |
| 2026-05-07 18:02 | 40.94722 | -7.85330 | 35899 ft | 428 kts | 215° |
| 2026-05-07 18:03 | 40.89537 | -7.89248 | 35889 ft | 429 kts | 215° |
| 2026-05-07 18:03 | 40.84387 | -7.93133 | 35885 ft | 428 kts | 215° |
| 2026-05-07 18:04 | 40.79211 | -7.97033 | 35888 ft | 426 kts | 215° |
| 2026-05-07 18:04 | 40.74067 | -8.00902 | 35892 ft | 425 kts | 215° |
| 2026-05-07 18:05 | 40.68934 | -8.04756 | 35898 ft | 424 kts | 215° |
| 2026-05-07 18:05 | 40.63847 | -8.08570 | 35893 ft | 423 kts | 215° |
| 2026-05-07 18:06 | 40.58763 | -8.12371 | 35901 ft | 421 kts | 214° |
| 2026-05-07 18:06 | 40.53656 | -8.16152 | 35906 ft | 420 kts | 214° |
| 2026-05-07 18:07 | 40.48558 | -8.19915 | 35912 ft | 419 kts | 214° |
| 2026-05-07 18:07 | 40.43467 | -8.23672 | 35904 ft | 419 kts | 214° |
| 2026-05-07 18:08 | 40.38389 | -8.27415 | 35909 ft | 419 kts | 214° |
| 2026-05-07 18:08 | 40.33300 | -8.31161 | 35916 ft | 418 kts | 214° |
| 2026-05-07 18:09 | 40.28259 | -8.34864 | 35918 ft | 418 kts | 214° |
| 2026-05-07 18:09 | 40.25699 | -8.36743 | 35714 ft | 414 kts | 214° |
| 2026-05-07 18:09 | 40.23243 | -8.38539 | 35429 ft | 404 kts | 214° |
| 2026-05-07 18:09 | 40.20810 | -8.40317 | 35180 ft | 396 kts | 214° |
| 2026-05-07 18:10 | 40.18432 | -8.42055 | 34928 ft | 388 kts | 214° |
| 2026-05-07 18:10 | 40.16097 | -8.43760 | 34670 ft | 380 kts | 214° |
| 2026-05-07 18:10 | 40.13800 | -8.45439 | 34421 ft | 377 kts | 213° |
| 2026-05-07 18:10 | 40.11516 | -8.47110 | 34184 ft | 376 kts | 213° |
| 2026-05-07 18:11 | 40.09216 | -8.48792 | 33957 ft | 380 kts | 213° |
| 2026-05-07 18:11 | 40.07689 | -8.49908 | 33731 ft | 378 kts | 213° |
| 2026-05-07 18:11 | 40.04643 | -8.52128 | 33245 ft | 372 kts | 213° |
| 2026-05-07 18:11 | 40.02383 | -8.53772 | 32845 ft | 370 kts | 213° |
| 2026-05-07 18:12 | 40.00169 | -8.55383 | 32464 ft | 367 kts | 213° |
| 2026-05-07 18:12 | 39.97945 | -8.56999 | 32087 ft | 364 kts | 213° |
| 2026-05-07 18:12 | 39.95737 | -8.58603 | 31713 ft | 361 kts | 213° |
| 2026-05-07 18:12 | 39.93541 | -8.60196 | 31354 ft | 359 kts | 213° |
| 2026-05-07 18:13 | 39.91364 | -8.61775 | 30985 ft | 357 kts | 213° |
| 2026-05-07 18:13 | 39.89226 | -8.63325 | 30633 ft | 355 kts | 213° |
| 2026-05-07 18:13 | 39.87070 | -8.64887 | 30282 ft | 353 kts | 213° |
| 2026-05-07 18:13 | 39.84929 | -8.66437 | 29872 ft | 352 kts | 212° |
| 2026-05-07 18:14 | 39.82801 | -8.67976 | 29468 ft | 349 kts | 212° |
| 2026-05-07 18:14 | 39.80686 | -8.69503 | 29067 ft | 347 kts | 212° |
| 2026-05-07 18:14 | 39.78584 | -8.71021 | 28706 ft | 344 kts | 212° |
| 2026-05-07 18:14 | 39.76495 | -8.72529 | 28311 ft | 345 kts | 212° |
| 2026-05-07 18:15 | 39.74340 | -8.74088 | 27957 ft | 365 kts | 212° |
| 2026-05-07 18:15 | 39.72074 | -8.75727 | 27583 ft | 377 kts | 212° |
| 2026-05-07 18:15 | 39.69774 | -8.77384 | 27192 ft | 377 kts | 211° |
| 2026-05-07 18:15 | 39.67514 | -8.79008 | 26805 ft | 374 kts | 211° |
| 2026-05-07 18:16 | 39.65240 | -8.80639 | 26428 ft | 371 kts | 211° |
| 2026-05-07 18:16 | 39.62988 | -8.82255 | 26055 ft | 369 kts | 211° |
| 2026-05-07 18:16 | 39.60745 | -8.83863 | 25682 ft | 366 kts | 211° |
| 2026-05-07 18:16 | 39.58518 | -8.85459 | 25324 ft | 364 kts | 211° |
| 2026-05-07 18:17 | 39.56310 | -8.87042 | 24960 ft | 362 kts | 211° |
| 2026-05-07 18:17 | 39.54101 | -8.88624 | 24616 ft | 360 kts | 211° |
| 2026-05-07 18:17 | 39.51914 | -8.90189 | 24273 ft | 359 kts | 211° |
| 2026-05-07 18:17 | 39.49759 | -8.91731 | 23931 ft | 357 kts | 210° |
| 2026-05-07 18:18 | 39.47584 | -8.93285 | 23592 ft | 355 kts | 210° |
| 2026-05-07 18:18 | 39.45425 | -8.94827 | 23201 ft | 354 kts | 210° |
| 2026-05-07 18:18 | 39.43272 | -8.96364 | 22794 ft | 352 kts | 210° |
| 2026-05-07 18:18 | 39.41145 | -8.97881 | 22377 ft | 351 kts | 210° |
| 2026-05-07 18:19 | 39.39012 | -8.99401 | 21970 ft | 350 kts | 210° |
| 2026-05-07 18:19 | 39.36877 | -9.00922 | 21555 ft | 349 kts | 210° |
| 2026-05-07 18:19 | 39.34756 | -9.02431 | 21158 ft | 349 kts | 209° |
| 2026-05-07 18:19 | 39.32655 | -9.03925 | 20758 ft | 348 kts | 209° |
| 2026-05-07 18:20 | 39.30538 | -9.05430 | 20366 ft | 347 kts | 209° |
| 2026-05-07 18:20 | 39.28421 | -9.06934 | 19979 ft | 346 kts | 208° |
| 2026-05-07 18:20 | 39.26315 | -9.08428 | 19595 ft | 345 kts | 208° |
| 2026-05-07 18:20 | 39.24213 | -9.09919 | 19215 ft | 343 kts | 208° |
| 2026-05-07 18:21 | 39.22124 | -9.11399 | 18838 ft | 342 kts | 208° |
| 2026-05-07 18:21 | 39.20041 | -9.12875 | 18464 ft | 341 kts | 208° |
| 2026-05-07 18:21 | 39.17942 | -9.14292 | 18072 ft | 340 kts | 202° |
| 2026-05-07 18:21 | 39.15722 | -9.15314 | 17656 ft | 336 kts | 198° |
| 2026-05-07 18:22 | 39.13506 | -9.16231 | 17225 ft | 334 kts | 197° |
| 2026-05-07 18:22 | 39.12790 | -9.16522 | 17088 ft | 333 kts | 197° |
| 2026-05-07 18:22 | 39.09846 | -9.17721 | 16535 ft | 330 kts | 197° |
| 2026-05-07 18:22 | 39.06980 | -9.18898 | 15739 ft | 324 kts | 197° |
| 2026-05-07 18:23 | 39.04832 | -9.19788 | 14983 ft | 324 kts | 197° |
| 2026-05-07 18:23 | 39.03409 | -9.20380 | 14500 ft | 324 kts | 197° |
| 2026-05-07 18:23 | 39.01235 | -9.21288 | 13801 ft | 324 kts | 197° |
| 2026-05-07 18:23 | 38.99133 | -9.22167 | 13159 ft | 320 kts | 197° |
| 2026-05-07 18:24 | 38.97028 | -9.23049 | 12510 ft | 317 kts | 197° |
| 2026-05-07 18:24 | 38.94944 | -9.23922 | 11857 ft | 313 kts | 197° |
| 2026-05-07 18:24 | 38.92884 | -9.24785 | 11254 ft | 310 kts | 198° |
| 2026-05-07 18:24 | 38.90841 | -9.25640 | 10631 ft | 307 kts | 198° |
| 2026-05-07 18:25 | 38.88815 | -9.26488 | 10029 ft | 304 kts | 198° |
| 2026-05-07 18:25 | 38.86808 | -9.27328 | 9387 ft | 302 kts | 198° |
| 2026-05-07 18:25 | 38.84775 | -9.27942 | 8730 ft | 299 kts | 188° |
| 2026-05-07 18:25 | 38.82724 | -9.28224 | 8223 ft | 293 kts | 185° |
| 2026-05-07 18:26 | 38.80719 | -9.28427 | 8059 ft | 288 kts | 185° |
| 2026-05-07 18:26 | 38.78709 | -9.28630 | 7972 ft | 289 kts | 185° |
| 2026-05-07 18:26 | 38.76705 | -9.28850 | 7942 ft | 289 kts | 185° |
| 2026-05-07 18:26 | 38.74681 | -9.29087 | 7565 ft | 297 kts | 186° |
| 2026-05-07 18:27 | 38.72645 | -9.29336 | 7081 ft | 296 kts | 186° |
| 2026-05-07 18:27 | 38.70613 | -9.29592 | 6577 ft | 290 kts | 186° |
| 2026-05-07 18:27 | 38.68625 | -9.29845 | 6070 ft | 284 kts | 187° |
| 2026-05-07 18:27 | 38.66691 | -9.30091 | 5790 ft | 272 kts | 187° |
| 2026-05-07 18:28 | 38.64846 | -9.30326 | 5518 ft | 261 kts | 188° |
| 2026-05-07 18:28 | 38.63073 | -9.30551 | 5247 ft | 251 kts | 188° |
| 2026-05-07 18:28 | 38.61359 | -9.30498 | 4958 ft | 246 kts | 166° |
| 2026-05-07 18:28 | 38.59895 | -9.29449 | 4693 ft | 243 kts | 137° |
| 2026-05-07 18:29 | 38.59081 | -9.27589 | 4356 ft | 242 kts | 98° |
| 2026-05-07 18:29 | 38.59334 | -9.25542 | 4101 ft | 231 kts | 56° |
| 2026-05-07 18:29 | 38.60389 | -9.24126 | 3901 ft | 221 kts | 35° |
| 2026-05-07 18:29 | 38.61569 | -9.22939 | 3620 ft | 219 kts | 32° |
| 2026-05-07 18:30 | 38.62855 | -9.21935 | 3343 ft | 214 kts | 26° |
| 2026-05-07 18:30 | 38.64174 | -9.21099 | 3044 ft | 208 kts | 20° |
| 2026-05-07 18:30 | 38.65453 | -9.20396 | 2761 ft | 196 kts | 17° |
| 2026-05-07 18:30 | 38.66687 | -9.19736 | 2507 ft | 188 kts | 18° |
| 2026-05-07 18:31 | 38.67870 | -9.19101 | 2264 ft | 183 kts | 17° |
| 2026-05-07 18:31 | 38.69023 | -9.18486 | 2004 ft | 176 kts | 18° |
| 2026-05-07 18:31 | 38.70114 | -9.17898 | 1757 ft | 169 kts | 18° |
| 2026-05-07 18:31 | 38.71175 | -9.17328 | 1559 ft | 163 kts | 18° |
| 2026-05-07 18:32 | 38.72220 | -9.16764 | 1334 ft | 161 kts | 18° |
| 2026-05-07 18:32 | 38.73230 | -9.16223 | 1135 ft | 151 kts | 17° |
| 2026-05-07 18:32 | 38.74202 | -9.15703 | 870 ft | 153 kts | 18° |
| 2026-05-07 18:32 | 38.75148 | -9.15180 | 673 ft | 147 kts | 16° |
| 2026-05-07 18:33 | 38.76104 | -9.14674 | 515 ft | 147 kts | 18° |
| 2026-05-07 18:33 | 38.77037 | -9.14170 | 362 ft | 140 kts | 19° |
| 2026-05-07 18:33 | 38.77839 | -9.13751 | 367 ft | 104 kts | 22° |
| 2026-05-07 18:33 | 38.78333 | -9.13407 | 363 ft | 42 kts | 47° |
| 2026-05-07 18:34 | 38.78330 | -9.13265 | 359 ft | 17 kts | 172° |
| 2026-05-07 18:34 | 38.78266 | -9.13293 | 358 ft | 3 kts | 204° |
| 2026-05-07 18:34 | 38.78243 | -9.13305 | 358 ft | 4 kts | 201° |
| 2026-05-07 18:34 | 38.78215 | -9.13319 | 362 ft | 5 kts | 202° |
| 2026-05-07 18:35 | 38.78179 | -9.13338 | 360 ft | 6 kts | 202° |
| 2026-05-07 18:35 | 38.78132 | -9.13363 | 364 ft | 8 kts | 203° |
| 2026-05-07 18:35 | 38.78077 | -9.13394 | 360 ft | 9 kts | 203° |
| 2026-05-07 18:35 | 38.78010 | -9.13428 | 360 ft | 11 kts | 202° |
| 2026-05-07 18:36 | 38.77932 | -9.13470 | 355 ft | 13 kts | 202° |
| 2026-05-07 18:36 | 38.77843 | -9.13518 | 358 ft | 15 kts | 203° |
| 2026-05-07 18:36 | 38.77745 | -9.13571 | 356 ft | 16 kts | 200° |
| 2026-05-07 18:36 | 38.77650 | -9.13594 | 354 ft | 15 kts | 161° |
| 2026-05-07 18:37 | 38.77555 | -9.13572 | 350 ft | 15 kts | 170° |
| 2026-05-07 18:37 | 38.77441 | -9.13541 | 350 ft | 18 kts | 168° |
| 2026-05-07 18:37 | 38.77314 | -9.13508 | 346 ft | 19 kts | 169° |
| 2026-05-07 18:37 | 38.77210 | -9.13480 | 350 ft | 15 kts | 168° |
| 2026-05-07 18:38 | 38.77105 | -9.13451 | 353 ft | 16 kts | 168° |
| 2026-05-07 18:38 | 38.76990 | -9.13420 | 344 ft | 18 kts | 168° |
| 2026-05-07 18:38 | 38.76863 | -9.13386 | 342 ft | 18 kts | 167° |
| 2026-05-07 18:38 | 38.76772 | -9.13367 | 344 ft | 10 kts | 193° |
| 2026-05-07 18:39 | 38.76715 | -9.13410 | 346 ft | 9 kts | 213° |
| 2026-05-07 18:39 | 38.76663 | -9.13459 | 346 ft | 9 kts | 230° |
| 2026-05-07 18:39 | 38.76646 | -9.13540 | 349 ft | 10 kts | 258° |
| 2026-05-07 18:39 | 38.76629 | -9.13638 | 351 ft | 12 kts | 252° |
| 2026-05-07 18:40 | 38.76573 | -9.13661 | 352 ft | 8 kts | 168° |
| 2026-05-07 18:40 | 38.76552 | -9.13612 | 352 ft | 7 kts | 135° |
| 2026-05-07 18:40 | 38.76512 | -9.13595 | 352 ft | 7 kts | 168° |
| 2026-05-07 18:40 | 38.76496 | -9.13591 | 347 ft | 2 kts | 168° |
| 2026-05-07 18:41 | 38.76490 | -9.13589 | 347 ft | 2 kts | 168° |
| 2026-05-07 18:41 | 38.76488 | -9.13589 | 347 ft | 0 kts | 168° |